Time;durP1;ratioP1;P1;durP2;ratioP2;P2;SDS_P1;SDS_P2;PMS_P1;PMS_P2;Temp;Humidity;BMP_temperature;BMP_pressure;BME280_temperature;BME280_humidity;BME280_pressure;Samples;Min_cycle;Max_cycle;Signal;HPM_P1;HPM_P2
2023/03/27 00:00:11;;;;;;;14.57;2.80;;;;;;;2.04;100.00;100431.63;694061;28;1350;-57
2023/03/27 00:00:33;;;;;;;11.25;1.85;;;;;;;2.01;100.00;100426.41;693990;28;844;-58
2023/03/27 00:00:55;;;;;;;10.50;1.92;;;;;;;2.01;100.00;100428.97;690194;28;1710;-58
2023/03/27 00:01:15;;;;;;;9.25;1.90;;;;;;;2.07;100.00;100430.84;690698;28;4530;-58
2023/03/27 00:01:36;;;;;;;9.70;1.70;;;;;;;2.07;100.00;100432.56;691330;28;1528;-58
2023/03/27 00:01:56;;;;;;;9.20;2.10;;;;;;;2.04;100.00;100426.47;692512;28;944;-58
2023/03/27 00:02:19;;;;;;;8.47;2.00;;;;;;;2.14;100.00;100429.28;694590;28;854;-58
2023/03/27 00:02:40;;;;;;;8.35;1.80;;;;;;;2.24;100.00;100428.69;693801;28;1674;-58
2023/03/27 00:03:00;;;;;;;8.48;1.60;;;;;;;2.19;100.00;100431.16;697548;28;1054;-58
2023/03/27 00:03:22;;;;;;;8.88;1.83;;;;;;;2.12;100.00;100429.25;697572;28;935;-58
2023/03/27 00:03:43;;;;;;;8.95;1.80;;;;;;;2.14;100.00;100430.16;696124;28;1475;-57
2023/03/27 00:04:04;;;;;;;8.00;1.92;;;;;;;2.17;100.00;100434.53;695524;28;979;-58
2023/03/27 00:04:25;;;;;;;14.65;2.40;;;;;;;2.20;100.00;100430.31;694749;28;4487;-58
2023/03/27 00:04:45;;;;;;;13.03;1.73;;;;;;;2.27;100.00;100433.03;693952;28;1547;-58
2023/03/27 00:05:06;;;;;;;8.70;1.80;;;;;;;2.22;100.00;100431.22;693876;28;984;-58
2023/03/27 00:05:27;;;;;;;6.53;1.52;;;;;;;2.19;100.00;100431.16;692907;28;933;-58
2023/03/27 00:05:47;;;;;;;7.45;1.83;;;;;;;2.21;100.00;100433.78;691832;28;1521;-58
2023/03/27 00:06:11;;;;;;;8.07;1.90;;;;;;;2.16;100.00;100432.78;693522;28;821;-59
2023/03/27 00:06:33;;;;;;;8.80;1.80;;;;;;;2.15;100.00;100433.63;692329;28;5549;-58
2023/03/27 00:06:53;;;;;;;10.40;1.60;;;;;;;2.13;100.00;100440.44;692380;28;1516;-59
2023/03/27 00:07:15;;;;;;;8.85;2.10;;;;;;;2.16;100.00;100435.34;693102;28;4851;-58
2023/03/27 00:07:35;;;;;;;9.63;1.75;;;;;;;2.18;100.00;100438.84;694804;28;1560;-58
2023/03/27 00:07:56;;;;;;;9.63;1.70;;;;;;;2.14;100.00;100432.72;694351;28;924;-58
2023/03/27 00:08:17;;;;;;;10.88;1.98;;;;;;;2.16;100.00;100440.50;695544;28;1320;-58
2023/03/27 00:08:37;;;;;;;12.25;2.28;;;;;;;2.13;100.00;100430.13;694207;28;1366;-58
2023/03/27 00:08:58;;;;;;;10.63;2.00;;;;;;;2.06;100.00;100443.69;694959;28;1379;-58
2023/03/27 00:09:20;;;;;;;6.10;1.57;;;;;;;2.06;100.00;100438.53;691779;28;1276;-55
2023/03/27 00:09:43;;;;;;;9.50;2.30;;;;;;;2.06;100.00;100433.38;692146;28;1520;-58
2023/03/27 00:10:03;;;;;;;7.50;1.70;;;;;;;2.05;100.00;100437.69;690175;28;987;-58
2023/03/27 00:10:24;;;;;;;8.63;1.97;;;;;;;2.05;100.00;100442.84;690153;28;4353;-58
2023/03/27 00:10:47;;;;;;;9.02;1.63;;;;;;;2.08;100.00;100442.00;692299;28;1492;-58
2023/03/27 00:11:08;;;;;;;10.88;1.70;;;;;;;2.08;100.00;100439.44;693761;28;959;-58
2023/03/27 00:11:28;;;;;;;10.40;1.90;;;;;;;2.04;100.00;100441.94;693877;28;1066;-58
2023/03/27 00:11:49;;;;;;;10.93;2.07;;;;;;;2.04;100.00;100446.22;693155;28;1648;-58
2023/03/27 00:12:09;;;;;;;8.60;1.80;;;;;;;2.10;100.00;100450.69;696230;28;777;-58
2023/03/27 00:12:29;;;;;;;9.70;1.90;;;;;;;2.11;100.00;100448.13;692940;28;1554;-58
2023/03/27 00:12:50;;;;;;;10.00;1.63;;;;;;;2.08;100.00;100442.00;692348;28;1527;-58
2023/03/27 00:13:10;;;;;;;7.93;1.70;;;;;;;2.12;100.00;100449.00;692213;28;1341;-58
2023/03/27 00:13:30;;;;;;;9.23;1.80;;;;;;;2.14;100.00;100452.50;689975;28;4299;-58
2023/03/27 00:13:53;;;;;;;9.10;1.70;;;;;;;2.15;100.00;100451.69;690131;28;1635;-58
2023/03/27 00:14:14;;;;;;;9.07;2.05;;;;;;;2.08;100.00;100445.47;690450;28;1388;-58
2023/03/27 00:14:35;;;;;;;10.80;2.20;;;;;;;2.01;100.00;100447.03;693163;28;912;-58
2023/03/27 00:14:55;;;;;;;7.78;1.65;;;;;;;2.01;100.00;100449.59;694620;28;1553;-58
2023/03/27 00:15:16;;;;;;;8.70;1.70;;;;;;;1.99;100.00;100461.56;694244;28;872;-58
2023/03/27 00:15:38;;;;;;;10.85;2.13;;;;;;;1.94;100.00;100452.84;693438;28;1633;-58
2023/03/27 00:15:58;;;;;;;10.20;2.17;;;;;;;2.01;100.00;100447.03;693401;28;904;-58
2023/03/27 00:16:20;;;;;;;9.33;1.70;;;;;;;1.96;100.00;100447.72;695122;28;4690;-58
2023/03/27 00:16:41;;;;;;;8.07;1.70;;;;;;;1.98;100.00;100449.53;693922;28;1610;-57
2023/03/27 00:17:03;;;;;;;8.57;1.88;;;;;;;1.96;100.00;100451.16;694493;28;979;-58
2023/03/27 00:17:24;;;;;;;10.40;2.00;;;;;;;1.95;100.00;100457.19;694642;28;808;-58
2023/03/27 00:17:49;;;;;;;11.47;2.00;;;;;;;1.97;100.00;100454.66;693738;28;1496;-57
2023/03/27 00:18:09;;;;;;;8.93;1.75;;;;;;;1.93;100.00;100453.69;696969;28;1031;-58
2023/03/27 00:18:30;;;;;;;12.98;2.13;;;;;;;1.95;100.00;100449.44;696829;28;1130;-58
2023/03/27 00:18:52;;;;;;;11.45;2.20;;;;;;;1.96;100.00;100453.75;695839;28;1499;-58
2023/03/27 00:19:12;;;;;;;8.48;1.98;;;;;;;1.94;100.00;100457.13;695857;28;4496;-59
2023/03/27 00:19:32;;;;;;;8.05;1.88;;;;;;;1.91;100.00;100455.34;695828;28;953;-58
2023/03/27 00:19:53;;;;;;;9.10;1.80;;;;;;;1.89;100.00;100451.84;691987;28;2154;-58
2023/03/27 00:20:15;;;;;;;8.45;1.70;;;;;;;1.85;100.00;100456.03;693601;28;833;-58
2023/03/27 00:20:36;;;;;;;11.07;1.90;;;;;;;1.85;100.00;100450.00;693176;28;1047;-58
2023/03/27 00:20:57;;;;;;;10.55;2.25;;;;;;;1.87;100.00;100453.53;692550;28;893;-59
2023/03/27 00:21:18;;;;;;;9.88;2.63;;;;;;;1.86;100.00;100454.34;692910;28;979;-59
2023/03/27 00:21:39;;;;;;;13.20;2.40;;;;;;;1.85;100.00;100457.75;694656;28;1472;-58
2023/03/27 00:22:00;;;;;;;12.43;2.50;;;;;;;1.82;100.00;100455.09;695561;28;1008;-58
2023/03/27 00:22:20;;;;;;;11.30;1.70;;;;;;;1.79;100.00;100455.88;696043;28;4305;-58
2023/03/27 00:22:40;;;;;;;12.37;2.03;;;;;;;1.79;100.00;100458.47;697293;28;1531;-59
2023/03/27 00:23:01;;;;;;;9.52;2.10;;;;;;;1.80;100.00;100462.78;697241;28;785;-58
2023/03/27 00:23:21;;;;;;;8.53;2.00;;;;;;;1.79;100.00;100455.88;697584;28;892;-58
2023/03/27 00:23:42;;;;;;;9.10;1.80;;;;;;;1.77;100.00;100454.09;697422;28;1499;-58
2023/03/27 00:24:02;;;;;;;11.17;1.97;;;;;;;1.79;100.00;100460.19;697133;28;1461;-58
2023/03/27 00:24:22;;;;;;;10.10;1.80;;;;;;;1.77;100.00;100460.09;696355;28;978;-58
2023/03/27 00:24:43;;;;;;;8.33;1.60;;;;;;;1.76;100.00;100460.06;697122;28;1490;-58
2023/03/27 00:25:04;;;;;;;9.10;1.70;;;;;;;1.75;100.00;100466.06;697448;28;836;-58
2023/03/27 00:25:27;;;;;;;9.00;1.83;;;;;;;1.73;100.00;100460.00;697448;28;4405;-58
2023/03/27 00:25:49;;;;;;;10.27;2.00;;;;;;;1.72;100.00;100460.81;694614;28;1561;-58
2023/03/27 00:26:10;;;;;;;11.65;1.90;;;;;;;1.72;100.00;100460.81;692450;28;1311;-58
2023/03/27 00:26:31;;;;;;;9.85;2.00;;;;;;;1.70;100.00;100466.81;693018;28;928;-58
2023/03/27 00:26:51;;;;;;;10.55;2.22;;;;;;;1.68;100.00;100463.31;692143;28;1545;-57
2023/03/27 00:27:13;;;;;;;7.83;1.83;;;;;;;1.67;100.00;100465.84;692925;28;1110;-58
2023/03/27 00:27:36;;;;;;;8.70;2.03;;;;;;;1.77;100.00;100464.41;694074;28;967;-58
2023/03/27 00:27:57;;;;;;;11.65;2.15;;;;;;;1.80;100.00;100467.94;695559;28;996;-58
2023/03/27 00:28:18;;;;;;;9.18;1.70;;;;;;;1.78;100.00;100473.88;696284;28;4393;-58
2023/03/27 00:28:38;;;;;;;8.20;2.20;;;;;;;1.74;100.00;100469.47;696794;28;1541;-58
2023/03/27 00:28:58;;;;;;;9.65;1.80;;;;;;;1.77;100.00;100461.81;697404;28;1258;-58
2023/03/27 00:29:19;;;;;;;7.63;1.70;;;;;;;1.76;100.00;100470.38;695482;28;940;-58
2023/03/27 00:29:40;;;;;;;7.93;1.60;;;;;;;1.74;100.00;100474.63;694770;28;1484;-59
2023/03/27 00:30:03;;;;;;;10.73;1.73;;;;;;;1.77;100.00;100469.56;694631;28;991;-58
2023/03/27 00:30:27;;;;;;;8.93;1.65;;;;;;;1.75;100.00;100468.66;694765;28;824;-58
2023/03/27 00:30:47;;;;;;;7.82;1.60;;;;;;;1.69;100.00;100475.38;692070;28;1512;-57
2023/03/27 00:31:13;;;;;;;10.50;2.33;;;;;;;1.65;100.00;100470.97;688537;28;1347;-58
2023/03/27 00:31:33;;;;;;;8.75;2.25;;;;;;;1.68;100.00;100477.91;691920;28;4996;-58
2023/03/27 00:31:54;;;;;;;10.03;2.07;;;;;;;1.67;100.00;100477.00;691362;28;1516;-58
2023/03/27 00:32:14;;;;;;;11.40;2.23;;;;;;;1.66;100.00;100477.88;691503;28;924;-58
2023/03/27 00:32:35;;;;;;;9.70;2.15;;;;;;;1.66;100.00;100475.28;692858;28;3335;-58
2023/03/27 00:32:57;;;;;;;8.48;1.60;;;;;;;1.72;100.00;100478.84;692669;28;1485;-57
2023/03/27 00:33:17;;;;;;;9.10;2.00;;;;;;;1.70;100.00;100491.69;690030;28;1382;-58
2023/03/27 00:33:38;;;;;;;8.90;2.40;;;;;;;1.68;100.00;100483.06;689522;28;1547;-58
2023/03/27 00:33:58;;;;;;;10.68;2.40;;;;;;;1.72;100.00;100484.00;687183;28;1044;-58
2023/03/27 00:34:19;;;;;;;7.38;1.52;;;;;;;1.77;100.00;100485.00;687460;28;4543;-58
2023/03/27 00:34:40;;;;;;;7.95;1.60;;;;;;;1.74;100.00;100490.09;689603;28;1477;-59
2023/03/27 00:35:03;;;;;;;7.13;1.65;;;;;;;1.77;100.00;100487.59;694079;28;908;-58
2023/03/27 00:35:26;;;;;;;7.53;2.00;;;;;;;1.87;100.00;100492.19;698277;28;883;-58
2023/03/27 00:35:48;;;;;;;8.25;1.80;;;;;;;1.82;100.00;100486.03;697352;28;1437;-58
2023/03/27 00:36:09;;;;;;;12.05;2.20;;;;;;;1.85;100.00;100491.25;695806;28;1036;-58
2023/03/27 00:36:30;;;;;;;10.25;2.10;;;;;;;1.87;100.00;100492.19;697067;28;676;-58
2023/03/27 00:36:52;;;;;;;9.10;1.70;;;;;;;1.91;100.00;100485.41;695327;28;1425;-58
2023/03/27 00:37:12;;;;;;;9.43;1.80;;;;;;;1.90;100.00;100489.69;696316;28;5308;-58
2023/03/27 00:37:33;;;;;;;10.77;1.77;;;;;;;1.91;100.00;100490.56;692098;28;1432;-58
2023/03/27 00:37:54;;;;;;;8.97;2.20;;;;;;;1.88;100.00;100496.50;687288;28;1151;-57
2023/03/27 00:38:17;;;;;;;8.45;2.40;;;;;;;1.89;100.00;100492.22;688690;28;1216;-58
2023/03/27 00:38:38;;;;;;;8.70;1.80;;;;;;;1.82;100.00;100492.03;688354;28;1513;-58
2023/03/27 00:38:58;;;;;;;10.68;2.13;;;;;;;1.80;100.00;100492.81;689167;28;801;-58
2023/03/27 00:39:22;;;;;;;9.60;2.13;;;;;;;1.82;100.00;100486.88;688993;28;1048;-58
2023/03/27 00:39:42;;;;;;;8.40;1.63;;;;;;;1.76;100.00;100491.00;690500;28;1462;-58
2023/03/27 00:40:07;;;;;;;9.30;1.90;;;;;;;1.77;100.00;100492.75;692065;28;901;-58
2023/03/27 00:40:27;;;;;;;8.88;1.73;;;;;;;1.81;100.00;100494.59;694676;28;4545;-58
2023/03/27 00:40:49;;;;;;;12.90;1.97;;;;;;;1.79;100.00;100494.53;694459;28;1559;-58
2023/03/27 00:41:09;;;;;;;11.32;2.15;;;;;;;1.81;100.00;100489.44;695360;28;1215;-58
2023/03/27 00:41:30;;;;;;;10.33;1.73;;;;;;;1.79;100.00;100496.25;692888;28;1140;-57
2023/03/27 00:41:54;;;;;;;10.13;1.90;;;;;;;1.70;100.00;100490.00;691823;28;1152;-58
2023/03/27 00:42:21;;;;;;;9.35;1.77;;;;;;;1.65;100.00;100494.16;692295;28;805;-58
2023/03/27 00:42:43;;;;;;;10.18;1.73;;;;;;;1.69;100.00;100495.13;686616;28;2171;-58
2023/03/27 00:43:22;;;;;;;10.10;1.73;;;;;;;1.66;100.00;100489.84;686187;28;801;-58
2023/03/27 00:43:43;;;;;;;10.23;1.92;;;;;;;1.65;100.00;100499.31;692638;28;4875;-58
2023/03/27 00:44:21;;;;;;;9.10;1.90;;;;;;;1.65;100.00;100498.44;694865;28;900;-58
2023/03/27 00:44:41;;;;;;;10.43;1.98;;;;;;;1.64;100.00;100507.84;698548;28;1577;-58
2023/03/27 00:45:01;;;;;;;11.65;2.20;;;;;;;1.64;100.00;100504.41;695728;28;869;-58
2023/03/27 00:45:29;;;;;;;11.33;1.90;;;;;;;1.70;100.00;100504.59;693164;28;885;-58
2023/03/27 00:45:54;;;;;;;10.02;1.80;;;;;;;1.71;100.00;100503.75;691297;28;1457;-58
2023/03/27 00:46:14;;;;;;;10.93;2.15;;;;;;;1.68;100.00;100504.53;690682;28;5198;-58
2023/03/27 00:46:43;;;;;;;9.20;1.97;;;;;;;1.64;100.00;100505.28;691845;28;1979;-58
2023/03/27 00:47:06;;;;;;;9.68;1.88;;;;;;;1.60;100.00;100500.00;691144;28;1236;-58
2023/03/27 00:47:32;;;;;;;9.88;1.88;;;;;;;1.66;100.00;100498.47;694817;28;1330;-58
2023/03/27 00:48:02;;;;;;;11.48;2.08;;;;;;;1.69;100.00;100501.16;694336;28;1469;-58
2023/03/27 00:48:24;;;;;;;7.00;1.67;;;;;;;1.66;100.00;100506.22;694153;28;1032;-59
2023/03/27 00:48:48;;;;;;;8.70;1.60;;;;;;;1.68;100.00;100504.53;688990;28;1480;-58
2023/03/27 00:49:12;;;;;;;9.18;1.88;;;;;;;1.70;100.00;100500.31;690060;28;1172;-59
2023/03/27 00:49:35;;;;;;;9.40;2.33;;;;;;;1.66;100.00;100500.16;689700;28;4757;-58
2023/03/27 00:49:59;;;;;;;9.48;2.40;;;;;;;1.62;100.00;100500.91;694993;28;1538;-59
2023/03/27 00:50:23;;;;;;;8.85;2.60;;;;;;;1.61;100.00;100499.19;694775;28;1032;-58
2023/03/27 00:50:45;;;;;;;8.35;1.50;;;;;;;1.61;100.00;100499.19;696292;28;1521;-58
2023/03/27 00:51:07;;;;;;;7.90;1.60;;;;;;;1.60;100.00;100506.03;694844;28;1389;-58
2023/03/27 00:51:30;;;;;;;10.40;1.70;;;;;;;1.69;100.00;100503.72;693001;28;837;-59
2023/03/27 00:51:51;;;;;;;9.23;2.25;;;;;;;1.73;100.00;100503.81;691942;28;1571;-58
2023/03/27 00:52:14;;;;;;;8.90;2.33;;;;;;;1.70;100.00;100500.31;693282;28;4568;-58
2023/03/27 00:52:38;;;;;;;8.73;2.15;;;;;;;1.69;100.00;100501.16;692735;28;2081;-58
2023/03/27 00:53:05;;;;;;;9.38;2.08;;;;;;;1.66;100.00;100503.63;692159;28;1161;-58
2023/03/27 00:53:27;;;;;;;10.57;3.10;;;;;;;1.62;100.00;100499.22;697568;28;923;-58
2023/03/27 00:53:49;;;;;;;9.00;1.92;;;;;;;1.63;100.00;100502.66;697349;28;1490;-58
2023/03/27 00:54:15;;;;;;;9.54;1.90;;;;;;;1.58;100.00;100502.53;695623;28;951;-58
2023/03/27 00:54:40;;;;;;;8.10;1.67;;;;;;;1.53;100.00;100501.53;692793;28;999;-58
2023/03/27 00:55:06;;;;;;;9.65;1.67;;;;;;;1.51;100.00;100506.63;694600;28;933;-59
2023/03/27 00:55:32;;;;;;;11.30;2.00;;;;;;;1.51;100.00;100508.34;693666;28;4359;-58
2023/03/27 00:55:57;;;;;;;7.65;1.60;;;;;;;1.49;100.00;100508.28;694039;28;1597;-58
2023/03/27 00:56:18;;;;;;;10.18;1.90;;;;;;;1.49;100.00;100512.56;698383;28;995;-58
2023/03/27 00:56:39;;;;;;;8.98;1.98;;;;;;;1.47;100.00;100509.94;696362;28;1806;-58
2023/03/27 00:57:04;;;;;;;8.00;1.90;;;;;;;1.48;100.00;100510.81;693625;28;1440;-58
2023/03/27 00:57:25;;;;;;;8.95;1.80;;;;;;;1.47;100.00;100507.38;691660;28;1242;-58
2023/03/27 00:57:50;;;;;;;9.68;1.75;;;;;;;1.50;100.00;100512.59;691336;28;1535;-59
2023/03/27 00:58:18;;;;;;;10.57;1.85;;;;;;;1.50;100.00;100509.16;689079;28;1929;-58
2023/03/27 00:59:01;;;;;;;7.65;1.70;;;;;;;1.50;100.00;100511.75;690967;28;4958;-58
2023/03/27 00:59:29;;;;;;;6.60;1.60;;;;;;;1.41;100.00;100507.16;696576;28;813;-58
2023/03/27 00:59:53;;;;;;;9.20;1.80;;;;;;;1.36;100.00;100513.91;695674;28;1510;-58
2023/03/27 01:00:15;;;;;;;9.88;2.10;;;;;;;1.35;100.00;100513.03;700136;28;1143;-58
2023/03/27 01:00:36;;;;;;;11.98;2.13;;;;;;;1.35;100.00;100518.16;700127;28;843;-58
2023/03/27 01:00:57;;;;;;;9.23;1.90;;;;;;;1.42;100.00;100515.78;699941;28;825;-58
2023/03/27 01:01:20;;;;;;;8.32;1.80;;;;;;;1.40;100.00;100512.28;696837;28;4287;-58
2023/03/27 01:01:43;;;;;;;9.73;1.70;;;;;;;1.39;100.00;100516.56;692309;28;1488;-58
2023/03/27 01:02:08;;;;;;;10.63;1.83;;;;;;;1.36;100.00;100522.50;689518;28;1486;-58
2023/03/27 01:02:28;;;;;;;10.77;2.00;;;;;;;1.34;100.00;100524.16;689985;28;1051;-58
2023/03/27 01:02:49;;;;;;;11.17;1.83;;;;;;;1.36;100.00;100522.50;688927;28;1513;-58
2023/03/27 01:03:10;;;;;;;6.65;1.83;;;;;;;1.36;100.00;100525.06;690096;28;1205;-58
2023/03/27 01:03:31;;;;;;;9.50;1.85;;;;;;;1.34;100.00;100523.28;691605;28;1232;-58
2023/03/27 01:03:52;;;;;;;10.60;2.05;;;;;;;1.36;100.00;100530.22;693993;28;1445;-57
2023/03/27 01:04:13;;;;;;;9.75;1.88;;;;;;;1.35;100.00;100525.91;696501;28;4716;-58
2023/03/27 01:04:34;;;;;;;8.27;2.10;;;;;;;1.36;100.00;100529.38;690610;28;841;-58
2023/03/27 01:04:56;;;;;;;8.85;1.92;;;;;;;1.35;100.00;100523.31;688135;28;1589;-58
2023/03/27 01:05:18;;;;;;;8.85;2.28;;;;;;;1.35;100.00;100525.91;689948;28;881;-58
2023/03/27 01:05:40;;;;;;;7.90;2.00;;;;;;;1.36;100.00;100517.34;691492;28;1493;-58
2023/03/27 01:06:01;;;;;;;9.35;2.08;;;;;;;1.35;100.00;100519.88;692690;28;954;-58
2023/03/27 01:06:23;;;;;;;10.65;2.50;;;;;;;1.36;100.00;100524.22;690327;28;5200;-58
2023/03/27 01:06:43;;;;;;;8.43;1.80;;;;;;;1.35;100.00;100525.91;691335;28;1918;-58
2023/03/27 01:07:06;;;;;;;9.20;2.13;;;;;;;1.33;100.00;100527.56;689937;28;1266;-59
2023/03/27 01:07:27;;;;;;;9.30;2.10;;;;;;;1.33;100.00;100522.41;685161;28;4347;-58
2023/03/27 01:07:48;;;;;;;10.57;2.10;;;;;;;1.31;100.00;100524.06;683678;28;1661;-58
2023/03/27 01:08:11;;;;;;;7.93;2.10;;;;;;;1.31;100.00;100524.06;686430;28;1413;-58
2023/03/27 01:08:35;;;;;;;9.68;2.00;;;;;;;1.33;100.00;100529.25;688813;28;853;-58
2023/03/27 01:08:56;;;;;;;8.48;1.95;;;;;;;1.33;100.00;100530.16;689758;28;1545;-58
2023/03/27 01:09:17;;;;;;;7.57;1.83;;;;;;;1.38;100.00;100526.84;693352;28;893;-58
2023/03/27 01:09:38;;;;;;;9.65;2.00;;;;;;;1.40;100.00;100520.91;694662;28;1489;-58
2023/03/27 01:10:00;;;;;;;10.23;2.10;;;;;;;1.39;100.00;100526.00;693287;28;1199;-58
2023/03/27 01:10:25;;;;;;;9.15;2.13;;;;;;;1.36;100.00;100530.22;692325;28;4386;-58
2023/03/27 01:11:00;;;;;;;6.80;1.80;;;;;;;1.34;100.00;100531.00;692193;28;1485;-58
2023/03/27 01:11:42;;;;;;;9.43;2.00;;;;;;;1.28;100.00;100529.13;692356;28;1385;-57
2023/03/27 01:12:29;;;;;;;7.45;1.88;;;;;;;1.30;100.00;100534.31;691999;28;1391;-58
2023/03/27 01:13:12;;;;;;;10.55;2.08;;;;;;;1.26;100.00;100530.78;690977;28;1476;-58
2023/03/27 01:14:03;;;;;;;8.30;2.13;;;;;;;1.25;100.00;100533.31;693355;28;4977;-58
2023/03/27 01:14:42;;;;;;;8.10;2.40;;;;;;;1.25;100.00;100536.75;694350;28;1287;-58
2023/03/27 01:15:38;;;;;;;11.02;2.50;;;;;;;1.25;100.00;100526.44;691955;28;1060;-58
2023/03/27 01:16:11;;;;;;;8.82;2.42;;;;;;;1.29;100.00;100528.31;692224;28;1056;-58
2023/03/27 01:16:46;;;;;;;9.90;2.35;;;;;;;1.25;100.00;100539.34;693851;28;5055;-58
2023/03/27 01:17:44;;;;;;;12.65;2.90;;;;;;;1.19;100.00;100529.72;696497;28;917;-58
2023/03/27 01:18:19;;;;;;;11.45;2.10;;;;;;;1.16;100.00;100529.63;694123;28;955;-58
2023/03/27 01:19:01;;;;;;;9.70;2.97;;;;;;;1.15;100.00;100539.84;694549;28;1563;-58
2023/03/27 01:19:43;;;;;;;9.88;2.38;;;;;;;1.10;100.00;100532.00;695423;28;4493;-59
2023/03/27 01:20:03;;;;;;;8.55;2.03;;;;;;;1.10;100.00;100542.28;696607;28;797;-58
2023/03/27 01:20:50;;;;;;;12.20;2.30;;;;;;;1.07;100.00;100536.19;696341;28;968;-58
2023/03/27 01:21:25;;;;;;;13.07;2.70;;;;;;;1.04;100.00;100533.50;689298;28;1340;-58
2023/03/27 01:22:08;;;;;;;9.35;2.33;;;;;;;1.04;100.00;100538.66;683311;28;1542;-57
2023/03/27 01:22:46;;;;;;;8.15;2.08;;;;;;;1.02;100.00;100536.91;693106;28;4292;-58
2023/03/27 01:23:07;;;;;;;12.10;2.50;;;;;;;1.04;100.00;100538.66;692048;28;1596;-58
2023/03/27 01:23:51;;;;;;;10.02;2.47;;;;;;;1.06;100.00;100537.00;691386;28;1024;-58
2023/03/27 01:24:13;;;;;;;7.82;2.08;;;;;;;1.05;100.00;100540.41;689977;28;1833;-58
2023/03/27 01:24:52;;;;;;;8.25;2.28;;;;;;;1.05;100.00;100545.56;689121;28;1252;-58
2023/03/27 01:25:15;;;;;;;11.68;2.60;;;;;;;1.05;100.00;100543.84;689009;28;4520;-58
2023/03/27 01:25:41;;;;;;;8.95;2.00;;;;;;;1.04;100.00;100543.78;689700;28;1281;-58
2023/03/27 01:26:13;;;;;;;8.73;1.98;;;;;;;1.02;100.00;100549.78;687758;28;1789;-58
2023/03/27 01:26:56;;;;;;;9.35;2.10;;;;;;;1.01;100.00;100550.59;689653;28;1561;-58
2023/03/27 01:27:57;;;;;;;12.90;2.40;;;;;;;0.98;100.00;100544.47;689594;28;937;-57
2023/03/27 01:28:40;;;;;;;9.98;2.20;;;;;;;0.97;100.00;100553.00;691199;28;4374;-58
2023/03/27 01:29:39;;;;;;;10.82;2.22;;;;;;;0.95;100.00;100546.97;694618;28;3491;-58
2023/03/27 01:30:06;;;;;;;12.35;2.60;;;;;;;0.96;100.00;100554.72;685069;28;1514;-58
2023/03/27 01:30:30;;;;;;;8.95;2.15;;;;;;;0.98;100.00;100554.78;687858;28;936;-58
2023/03/27 01:31:09;;;;;;;7.40;2.05;;;;;;;0.97;100.00;100558.16;692695;28;1688;-58
2023/03/27 01:32:05;;;;;;;8.50;2.17;;;;;;;0.97;100.00;100566.78;691851;28;4516;-56
2023/03/27 01:32:43;;;;;;;9.73;2.40;;;;;;;0.95;100.00;100565.84;691296;28;1448;-58
2023/03/27 01:33:37;;;;;;;10.32;2.40;;;;;;;0.95;100.00;100565.84;693966;28;832;-58
2023/03/27 01:34:47;;;;;;;9.43;2.30;;;;;;;0.93;100.00;100564.94;693431;28;1419;-58
2023/03/27 01:35:08;;;;;;;11.68;2.30;;;;;;;0.94;100.00;100564.13;695957;28;5732;-58
2023/03/27 01:35:39;;;;;;;9.48;2.67;;;;;;;0.94;100.00;100565.78;695160;28;1527;-58
2023/03/27 01:36:38;;;;;;;11.00;2.80;;;;;;;0.93;100.00;100564.94;696049;28;913;-58
2023/03/27 01:37:14;;;;;;;11.75;3.13;;;;;;;0.94;100.00;100566.69;693603;28;1365;-58
2023/03/27 01:37:53;;;;;;;11.13;2.80;;;;;;;0.93;100.00;100567.50;696129;28;1239;-58
2023/03/27 01:38:32;;;;;;;11.10;2.60;;;;;;;0.91;100.00;100564.00;695781;28;1156;-58
2023/03/27 01:39:07;;;;;;;10.10;2.70;;;;;;;0.89;100.00;100570.81;695462;28;1591;-58
2023/03/27 01:39:43;;;;;;;11.73;2.67;;;;;;;0.89;100.00;100567.34;697212;28;888;-58
2023/03/27 01:40:09;;;;;;;11.38;3.00;;;;;;;0.90;100.00;100572.56;696821;28;1328;-58
2023/03/27 01:41:12;;;;;;;13.45;2.83;;;;;;;0.85;100.00;100566.38;695280;28;4518;-57
2023/03/27 01:42:01;;;;;;;9.95;2.60;;;;;;;0.84;100.00;100567.19;684162;28;933;-58
2023/03/27 01:42:35;;;;;;;10.07;2.80;;;;;;;0.85;100.00;100571.53;695062;28;1481;-58
2023/03/27 01:43:13;;;;;;;12.05;3.10;;;;;;;0.82;100.00;100572.28;694803;28;1026;-58
2023/03/27 01:43:45;;;;;;;8.63;2.60;;;;;;;0.82;100.00;100568.84;695344;28;6606;-58
2023/03/27 01:44:37;;;;;;;12.57;2.88;;;;;;;0.80;100.00;100573.94;695307;28;845;-58
2023/03/27 01:45:09;;;;;;;10.93;2.70;;;;;;;0.82;100.00;100576.56;683869;28;1648;-58
2023/03/27 01:45:44;;;;;;;12.02;2.88;;;;;;;0.83;100.00;100579.19;696219;28;1227;-58
2023/03/27 01:46:30;;;;;;;12.32;3.00;;;;;;;0.88;100.00;100584.47;697547;28;919;-58
2023/03/27 01:46:58;;;;;;;9.75;2.60;;;;;;;0.84;100.00;100582.63;677803;29;6117;-58
2023/03/27 01:47:37;;;;;;;10.98;2.60;;;;;;;0.83;100.00;100580.88;694302;28;1407;-59
2023/03/27 01:48:42;;;;;;;12.43;2.70;;;;;;;0.80;100.00;100579.09;695397;28;828;-58
2023/03/27 01:49:18;;;;;;;10.45;2.83;;;;;;;0.83;100.00;100583.44;684318;28;881;-58
2023/03/27 01:49:45;;;;;;;11.52;2.80;;;;;;;0.77;100.00;100585.84;689594;28;5620;-58
2023/03/27 01:50:43;;;;;;;11.45;2.88;;;;;;;0.76;100.00;100581.50;693692;28;869;-58
2023/03/27 01:51:15;;;;;;;10.65;2.70;;;;;;;0.76;100.00;100577.25;684066;28;1304;-58
2023/03/27 01:51:40;;;;;;;9.65;2.80;;;;;;;0.80;100.00;100585.94;683774;28;1579;-58
2023/03/27 01:52:05;;;;;;;13.55;2.80;;;;;;;0.83;100.00;100584.34;686607;28;1280;-58
2023/03/27 01:52:31;;;;;;;13.45;2.75;;;;;;;0.83;100.00;100586.03;693811;28;4524;-56
2023/03/27 01:53:14;;;;;;;10.63;2.80;;;;;;;0.82;100.00;100587.72;694371;28;1527;-58
2023/03/27 01:53:50;;;;;;;11.05;2.60;;;;;;;0.79;100.00;100589.31;693623;28;1347;-58
2023/03/27 01:54:33;;;;;;;9.18;2.95;;;;;;;0.75;100.00;100587.47;693830;28;1002;-58
2023/03/27 01:55:03;;;;;;;10.30;2.75;;;;;;;0.75;100.00;100588.34;691818;28;1630;-58
2023/03/27 01:55:30;;;;;;;13.40;2.83;;;;;;;0.75;100.00;100587.47;690889;28;4693;-58
2023/03/27 01:55:57;;;;;;;10.70;2.50;;;;;;;0.74;100.00;100588.31;690372;28;1485;-58
2023/03/27 01:56:25;;;;;;;11.95;2.55;;;;;;;0.74;100.00;100586.59;690132;28;1463;-58
2023/03/27 01:56:52;;;;;;;8.48;2.60;;;;;;;0.73;100.00;100582.25;690304;28;1529;-58
2023/03/27 01:57:52;;;;;;;10.55;2.70;;;;;;;0.70;100.00;100589.88;697688;28;2057;-58
2023/03/27 01:58:17;;;;;;;9.50;2.55;;;;;;;0.71;100.00;100585.59;691078;28;4559;-58
2023/03/27 01:58:45;;;;;;;8.77;2.25;;;;;;;0.70;100.00;100589.03;691083;28;1556;-58
2023/03/27 01:59:11;;;;;;;10.07;2.35;;;;;;;0.66;100.00;100596.63;691448;28;1315;-58
2023/03/27 01:59:38;;;;;;;10.75;2.53;;;;;;;0.66;100.00;100601.75;693431;28;762;-58
2023/03/27 02:00:14;;;;;;;9.88;2.20;;;;;;;0.63;100.00;100596.50;694441;28;1339;-58
2023/03/27 02:00:41;;;;;;;10.10;2.60;;;;;;;0.61;100.00;100600.75;696220;28;1613;-58
2023/03/27 02:01:04;;;;;;;10.25;2.60;;;;;;;0.58;100.00;100595.50;696139;28;1397;-58
2023/03/27 02:01:34;;;;;;;9.40;2.33;;;;;;;0.57;100.00;100596.31;692652;28;4580;-58
2023/03/27 02:02:02;;;;;;;11.02;2.85;;;;;;;0.59;100.00;100601.50;693688;28;897;-58
2023/03/27 02:02:28;;;;;;;9.80;2.33;;;;;;;0.58;100.00;100605.78;691964;28;1326;-58
2023/03/27 02:03:06;;;;;;;8.35;2.58;;;;;;;0.55;100.00;100600.53;689182;28;1485;-58
2023/03/27 02:03:33;;;;;;;10.98;2.72;;;;;;;0.52;100.00;100604.69;689177;28;901;-59
2023/03/27 02:03:58;;;;;;;9.35;2.80;;;;;;;0.51;100.00;100598.66;691281;28;1689;-58
2023/03/27 02:04:32;;;;;;;8.63;3.00;;;;;;;0.53;100.00;100609.00;693259;28;4329;-58
2023/03/27 02:05:06;;;;;;;9.75;2.47;;;;;;;0.53;100.00;100602.19;699443;28;1586;-58
2023/03/27 02:05:52;;;;;;;11.00;3.05;;;;;;;0.53;100.00;100606.44;697498;28;2398;-58
2023/03/27 02:06:20;;;;;;;9.27;2.58;;;;;;;0.50;100.00;100607.22;696258;28;1208;-58
2023/03/27 02:06:57;;;;;;;10.52;2.47;;;;;;;0.48;100.00;100606.28;694010;28;1960;-58
2023/03/27 02:07:27;;;;;;;9.73;2.50;;;;;;;0.45;100.00;100603.59;690229;28;4621;-57
2023/03/27 02:07:54;;;;;;;9.30;2.50;;;;;;;0.46;100.00;100610.50;691798;28;1709;-58
2023/03/27 02:08:23;;;;;;;10.85;2.45;;;;;;;0.44;100.00;100607.00;691347;28;1227;-58
2023/03/27 02:09:07;;;;;;;12.82;2.85;;;;;;;0.44;100.00;100613.00;691973;28;1537;-58